Time;durP1;ratioP1;P1;durP2;ratioP2;P2;SDS_P1;SDS_P2;PMS_P1;PMS_P2;Temp;Humidity;BMP_temperature;BMP_pressure;BME280_temperature;BME280_humidity;BME280_pressure;Samples;Min_cycle;Max_cycle;Signal;HPM_P1;HPM_P2
2023/04/06 00:01:41;;;;;;;;;;;;;;;4.58;45.83;100142.06;5345986;26;33489;-84
2023/04/06 00:04:09;;;;;;;;;;;;;;;4.59;46.06;100132.47;5346069;26;34730;-84
2023/04/06 00:06:37;;;;;;;;;;;;;;;4.48;46.32;100129.16;5327242;26;34039;-84
2023/04/06 00:09:04;;;;;;;;;;;;;;;4.44;46.27;100135.31;5326463;26;33144;-84
2023/04/06 00:11:33;;;;;;;;;;;;;;;4.52;45.93;100136.09;5345660;26;32240;-84
2023/04/06 00:14:01;;;;;;;;;;;;;;;4.48;45.63;100131.78;5346183;26;34935;-84
2023/04/06 00:16:29;;;;;;;;;;;;;;;4.37;45.17;100127.56;5327985;26;33517;-84
2023/04/06 00:18:58;;;;;;;;;;;;;;;4.32;45.96;100131.09;5327825;26;32937;-84
2023/04/06 00:21:27;;;;;;;;;;;;;;;4.29;45.43;100126.78;5323660;26;32649;-84
2023/04/06 00:23:55;;;;;;;;;;;;;;;4.12;45.92;100132.22;5345866;26;32958;-84
2023/04/06 00:26:23;;;;;;;;;;;;;;;4.22;46.26;100127.72;5345536;26;34210;-84
2023/04/06 00:28:53;;;;;;;;;;;;;;;4.33;45.50;100130.22;5309845;26;34451;-83
2023/04/06 00:31:21;;;;;;;;;;;;;;;4.39;45.23;100129.28;5344783;26;32823;-83
2023/04/06 00:33:49;;;;;;;;;;;;;;;4.27;45.66;100125.06;5327218;26;33430;-84
2023/04/06 00:36:16;;;;;;;;;;;;;;;4.24;45.54;100119.91;5345431;26;33809;-84
2023/04/06 00:38:44;;;;;;;;;;;;;;;4.14;45.93;100113.91;5327483;26;33653;-84
2023/04/06 00:41:17;;;;;;;;;;;;;;;4.21;45.87;100115.56;5310842;26;34096;-84
2023/04/06 00:43:45;;;;;;;;;;;;;;;4.15;45.75;100109.56;5346441;26;34091;-84
2023/04/06 00:46:13;;;;;;;;;;;;;;;4.08;45.77;100104.41;5345672;26;33999;-83
2023/04/06 00:48:40;;;;;;;;;;;;;;;4.08;45.93;100103.53;5326897;26;33938;-83
2023/04/06 00:51:09;;;;;;;;;;;;;;;4.07;46.00;100107.03;5327332;26;32284;-83
2023/04/06 00:53:37;;;;;;;;;;;;;;;4.16;45.57;100106.91;5308831;26;33113;-83
2023/04/06 00:56:05;;;;;;;;;;;;;;;4.18;45.36;100109.50;5346258;26;35067;-83
2023/04/06 00:58:37;;;;;;;;;;;;;;;4.03;45.39;100108.81;5309251;26;33109;-83
2023/04/06 01:01:07;;;;;;;;;;;;;;;4.06;45.50;100102.69;5346523;26;33657;-82
2023/04/06 01:03:36;;;;;;;;;;;;;;;3.82;45.87;100107.31;5345614;26;33894;-82
2023/04/06 01:06:05;;;;;;;;;;;;;;;3.73;46.36;100112.66;5345860;26;33074;-82
2023/04/06 01:08:34;;;;;;;;;;;;;;;3.79;46.12;100104.72;5308921;26;32767;-83
2023/04/06 01:11:08;;;;;;;;;;;;;;;3.75;46.30;100104.78;5346541;26;33350;-83
2023/04/06 01:13:37;;;;;;;;;;;;;;;3.74;46.22;100103.91;5326932;26;32518;-83
2023/04/06 01:16:07;;;;;;;;;;;;;;;3.87;45.84;100114.25;5309026;26;33009;-83
2023/04/06 01:18:45;;;;;;;;;;;;;;;3.71;45.71;100114.41;5346108;26;34050;-83
2023/04/06 01:21:17;;;;;;;;;;;;;;;3.64;45.72;100110.12;5345487;26;33228;-83
2023/04/06 01:23:46;;;;;;;;;;;;;;;3.75;45.39;100110.91;5327566;26;33117;-83
2023/04/06 01:26:16;;;;;;;;;;;;;;;3.79;45.24;100111.72;5309654;26;32999;-83
2023/04/06 01:28:45;;;;;;;;;;;;;;;3.87;44.97;100107.25;5308407;26;33237;-83
2023/04/06 01:31:14;;;;;;;;;;;;;;;3.79;44.82;100109.97;5326117;26;33988;-84
2023/04/06 01:33:43;;;;;;;;;;;;;;;3.71;44.65;100108.34;5327263;26;33889;-84
2023/04/06 01:36:14;;;;;;;;;;;;;;;3.83;44.68;100111.66;5310501;26;32991;-84
2023/04/06 01:38:42;;;;;;;;;;;;;;;3.90;44.48;100112.47;5308790;26;33163;-84
2023/04/06 01:41:11;;;;;;;;;;;;;;;3.76;45.00;100107.41;5345637;26;31846;-83
2023/04/06 01:43:43;;;;;;;;;;;;;;;3.59;44.97;100099.72;5309174;26;32900;-85
2023/04/06 01:46:11;;;;;;;;;;;;;;;3.48;45.41;100104.22;5309457;26;34418;-87
2023/04/06 01:48:39;;;;;;;;;;;;;;;3.43;45.36;100105.13;5327136;26;33494;-86
2023/04/06 01:51:11;;;;;;;;;;;;;;;3.55;45.12;100103.25;5310097;26;32503;-84
2023/04/06 01:53:41;;;;;;;;;;;;;;;3.69;44.71;100097.87;5345629;26;33994;-84
2023/04/06 01:56:15;;;;;;;;;;;;;;;3.35;45.57;100094.75;5326950;26;34053;-84
2023/04/06 01:58:43;;;;;;;;;;;;;;;3.26;45.85;100095.72;5363428;26;33212;-84
2023/04/06 02:01:11;;;;;;;;;;;;;;;3.40;45.37;100097.31;5327150;26;32784;-85
2023/04/06 02:03:43;;;;;;;;;;;;;;;3.58;45.11;100102.38;5328288;26;33469;-84
2023/04/06 02:06:12;;;;;;;;;;;;;;;3.42;45.58;100095.56;5345644;26;33511;-85
2023/04/06 02:08:41;;;;;;;;;;;;;;;3.52;45.17;100102.44;5308917;26;34169;-84
2023/04/06 02:11:09;;;;;;;;;;;;;;;3.72;45.06;100097.00;5344944;26;32034;-84
2023/04/06 02:13:37;;;;;;;;;;;;;;;3.59;45.26;100093.66;5309007;26;34018;-84
2023/04/06 02:16:05;;;;;;;;;;;;;;;3.58;45.09;100092.78;5345260;26;34182;-84
2023/04/06 02:18:33;;;;;;;;;;;;;;;3.55;45.13;100086.72;5345507;26;34066;-85
2023/04/06 02:21:01;;;;;;;;;;;;;;;3.48;45.01;100083.31;5316411;26;33893;-84
2023/04/06 02:23:29;;;;;;;;;;;;;;;3.71;44.38;100082.22;5342832;26;34612;-84
2023/04/06 02:25:57;;;;;;;;;;;;;;;3.58;44.61;100073.66;5308830;26;32719;-84
2023/04/06 02:28:25;;;;;;;;;;;;;;;3.48;45.08;100072.03;5326455;26;33668;-84
2023/04/06 02:30:55;;;;;;;;;;;;;;;3.33;45.79;100073.03;5345119;26;33074;-84
2023/04/06 02:33:23;;;;;;;;;;;;;;;3.42;45.75;100072.94;5345324;26;33032;-84
2023/04/06 02:35:51;;;;;;;;;;;;;;;3.36;46.02;100074.75;5345074;26;32156;-84
2023/04/06 02:38:20;;;;;;;;;;;;;;;3.37;45.76;100072.13;5290541;26;33232;-84
2023/04/06 02:40:52;;;;;;;;;;;;;;;3.28;45.64;100073.09;5345793;26;34061;-84
2023/04/06 02:43:20;;;;;;;;;;;;;;;3.13;46.66;100072.34;5345116;26;34656;-84
2023/04/06 02:45:49;;;;;;;;;;;;;;;3.34;46.11;100073.03;5327375;26;33770;-84
2023/04/06 02:48:17;;;;;;;;;;;;;;;3.38;46.44;100062.56;5308489;26;34129;-84
2023/04/06 02:50:47;;;;;;;;;;;;;;;3.59;45.98;100062.31;5344765;26;32774;-84
2023/04/06 02:53:16;;;;;;;;;;;;;;;3.34;46.36;100065.19;5345227;26;33950;-84
2023/04/06 02:55:45;;;;;;;;;;;;;;;3.32;46.51;100066.97;5309117;26;33411;-84
2023/04/06 02:58:17;;;;;;;;;;;;;;;3.40;46.34;100056.44;5345656;26;33519;-85
2023/04/06 03:00:45;;;;;;;;;;;;;;;3.58;45.99;100060.59;5318491;26;32101;-84
2023/04/06 03:03:12;;;;;;;;;;;;;;;3.50;45.91;100057.19;5345780;26;33070;-84
2023/04/06 03:05:41;;;;;;;;;;;;;;;3.54;45.65;100057.16;5346150;26;33908;-85
2023/04/06 03:08:10;;;;;;;;;;;;;;;3.51;45.60;100056.31;5327770;26;33862;-85
2023/04/06 03:10:38;;;;;;;;;;;;;;;3.42;46.61;100066.84;5309569;26;33358;-85
2023/04/06 03:13:07;;;;;;;;;;;;;;;3.50;45.99;100055.44;5327241;26;34026;-85
2023/04/06 03:15:41;;;;;;;;;;;;;;;3.43;45.82;100061.63;5347221;26;35729;-86
2023/04/06 03:18:10;;;;;;;;;;;;;;;3.29;46.33;100063.50;5309083;26;34267;-86
2023/04/06 03:20:40;;;;;;;;;;;;;;;3.53;45.88;100062.38;5328123;26;33219;-85
2023/04/06 03:23:10;;;;;;;;;;;;;;;3.48;45.69;100056.34;5345581;26;35037;-86
2023/04/06 03:25:39;;;;;;;;;;;;;;;3.44;45.50;100067.72;5345654;26;33362;-85
2023/04/06 03:28:08;;;;;;;;;;;;;;;3.28;45.73;100065.25;5346057;26;34282;-85
2023/04/06 03:30:36;;;;;;;;;;;;;;;3.04;46.76;100068.09;5346041;26;33717;-85
2023/04/06 03:33:05;;;;;;;;;;;;;;;3.06;47.35;100061.97;5327743;26;33457;-86
2023/04/06 03:35:34;;;;;;;;;;;;;;;3.23;46.86;100059.22;5309546;26;33137;-86
2023/04/06 03:38:02;;;;;;;;;;;;;;;3.13;46.63;100062.78;5345843;26;35090;-85
2023/04/06 03:40:34;;;;;;;;;;;;;;;3.34;46.20;100062.59;5345745;26;33331;-85
2023/04/06 03:43:04;;;;;;;;;;;;;;;3.21;46.22;100067.94;5327996;26;33444;-85
2023/04/06 03:45:35;;;;;;;;;;;;;;;3.23;46.14;100069.66;5309616;26;33304;-85
2023/04/06 03:48:05;;;;;;;;;;;;;;;3.36;45.86;100066.91;5324031;26;33435;-85
2023/04/06 03:50:34;;;;;;;;;;;;;;;3.27;46.04;100060.03;5324358;26;32599;-85
2023/04/06 03:53:02;;;;;;;;;;;;;;;3.14;46.13;100069.75;5345570;26;32560;-85
2023/04/06 03:55:30;;;;;;;;;;;;;;;3.06;46.47;100068.94;5345662;26;34806;-86
2023/04/06 03:57:59;;;;;;;;;;;;;;;3.04;46.48;100060.28;5326993;26;33314;-86
2023/04/06 04:00:29;;;;;;;;;;;;;;;3.01;46.48;100068.13;5345649;26;33287;-86
2023/04/06 04:03:02;;;;;;;;;;;;;;;3.07;46.66;100068.06;5345702;26;32850;-86
2023/04/06 04:05:29;;;;;;;;;;;;;;;2.97;47.04;100063.81;5345778;26;32837;-86
2023/04/06 04:07:59;;;;;;;;;;;;;;;2.90;47.49;100060.41;5309712;26;34646;-86
2023/04/06 04:10:28;;;;;;;;;;;;;;;2.87;47.80;100059.53;5346005;26;34268;-84
2023/04/06 04:12:56;;;;;;;;;;;;;;;2.88;47.71;100058.66;5345321;26;35022;-85
2023/04/06 04:15:25;;;;;;;;;;;;;;;2.86;47.78;100052.59;5345534;26;34230;-85
2023/04/06 04:17:53;;;;;;;;;;;;;;;2.70;48.26;100057.91;5345359;26;35113;-84
2023/04/06 04:20:21;;;;;;;;;;;;;;;2.64;48.32;100063.19;5320849;26;32337;-83
2023/04/06 04:22:50;;;;;;;;;;;;;;;2.64;48.67;100057.97;5345838;26;33892;-83
2023/04/06 04:25:21;;;;;;;;;;;;;;;2.87;48.01;100054.34;5345975;26;35037;-85
2023/04/06 04:27:50;;;;;;;;;;;;;;;2.77;48.21;100061.37;5327661;26;34926;-85
2023/04/06 04:30:21;;;;;;;;;;;;;;;2.75;48.32;100061.37;5326979;26;33622;-85
2023/04/06 04:32:54;;;;;;;;;;;;;;;2.80;48.03;100059.59;5327751;26;34017;-85
2023/04/06 04:35:30;;;;;;;;;;;;;;;2.54;48.94;100057.19;5308983;26;33183;-84
2023/04/06 04:38:05;;;;;;;;;;;;;;;2.42;48.92;100056.38;5365315;26;34771;-84
2023/04/06 04:40:36;;;;;;;;;;;;;;;2.47;48.84;100057.22;5346329;26;33422;-84
2023/04/06 04:43:06;;;;;;;;;;;;;;;3.09;46.68;100055.88;5328497;26;33401;-85
2023/04/06 04:45:36;;;;;;;;;;;;;;;2.67;47.55;100062.31;5306730;26;33729;-83
2023/04/06 04:48:07;;;;;;;;;;;;;;;2.66;48.25;100060.56;5327763;26;34008;-83
2023/04/06 04:50:37;;;;;;;;;;;;;;;2.42;49.16;100056.38;5344739;26;34331;-83
2023/04/06 04:53:07;;;;;;;;;;;;;;;2.50;49.41;100054.59;5308482;26;32752;-83
2023/04/06 04:55:36;;;;;;;;;;;;;;;2.72;48.99;100053.56;5345475;26;34316;-83
2023/04/06 04:58:15;;;;;;;;;;;;;;;2.68;49.41;100044.03;5346499;26;33247;-83
2023/04/06 05:00:45;;;;;;;;;;;;;;;2.87;47.73;100041.28;5344587;26;32320;-83
2023/04/06 05:03:22;;;;;;;;;;;;;;;2.90;46.76;100033.44;5326835;26;33415;-83
2023/04/06 05:05:57;;;;;;;;;;;;;;;3.08;46.52;100039.34;5346198;26;33921;-83
2023/04/06 05:08:29;;;;;;;;;;;;;;;3.11;45.74;100033.22;5327565;26;33121;-85
2023/04/06 05:10:58;;;;;;;;;;;;;;;3.27;45.66;100034.81;5326885;26;33721;-83
2023/04/06 05:13:33;;;;;;;;;;;;;;;3.12;46.83;100034.97;5346262;26;32961;-82
2023/04/06 05:16:19;;;;;;;;;;;;;;;3.06;47.07;100037.63;5346150;26;32995;-83
2023/04/06 05:18:56;;;;;;;;;;;;;;;3.10;46.94;100036.72;5364238;26;36071;-83
2023/04/06 05:21:27;;;;;;;;;;;;;;;3.17;46.51;100034.91;5328150;26;33316;-83
2023/04/06 05:24:02;;;;;;;;;;;;;;;3.37;45.86;100033.00;5327651;26;34286;-83
2023/04/06 05:26:31;;;;;;;;;;;;;;;3.33;45.81;100028.69;5309887;26;32989;-83
2023/04/06 05:29:00;;;;;;;;;;;;;;;3.40;44.63;100025.09;5344461;26;34548;-83
2023/04/06 05:31:40;;;;;;;;;;;;;;;3.48;44.64;100017.19;5310465;26;32483;-84
2023/04/06 05:34:12;;;;;;;;;;;;;;;3.43;44.10;100017.25;5342726;26;33429;-84
2023/04/06 05:36:43;;;;;;;;;;;;;;;3.44;44.44;100015.50;5326111;26;32782;-83
2023/04/06 05:39:16;;;;;;;;;;;;;;;3.70;44.42;100018.66;5327386;26;34189;-83
2023/04/06 05:47:03;;;;;;;;;;;;;;;3.87;44.35;100009.75;5344395;26;35337;-85
2023/04/06 05:49:34;;;;;;;;;;;;;;;3.62;44.24;100007.47;5343871;26;33419;-85
2023/04/06 05:52:04;;;;;;;;;;;;;;;3.81;43.61;100011.56;5327083;26;33182;-86
2023/04/06 05:54:40;;;;;;;;;;;;;;;3.85;43.71;100018.47;5347037;26;34953;-85
2023/04/06 05:57:11;;;;;;;;;;;;;;;3.50;44.91;100010.19;5346079;26;33637;-85
2023/04/06 05:59:41;;;;;;;;;;;;;;;3.92;44.37;100007.94;5345962;26;34726;-85
2023/04/06 06:02:11;;;;;;;;;;;;;;;4.08;43.73;99999.88;5345602;26;33753;-86
2023/04/06 06:04:40;;;;;;;;;;;;;;;3.83;44.03;100004.56;5308413;26;34887;-84
2023/04/06 06:07:11;;;;;;;;;;;;;;;3.91;44.31;99998.38;5307786;26;34099;-88
2023/04/06 06:09:40;;;;;;;;;;;;;;;3.94;43.71;100000.94;5342990;26;34225;-87
2023/04/06 06:12:11;;;;;;;;;;;;;;;3.90;43.93;99994.06;5341272;26;32529;-87
2023/04/06 06:14:45;;;;;;;;;;;;;;;4.35;42.80;99995.97;5328404;26;34653;-87
2023/04/06 06:17:25;;;;;;;;;;;;;;;4.23;42.90;99992.72;5312841;26;33236;-88
2023/04/06 06:19:55;;;;;;;;;;;;;;;4.42;42.50;99995.91;5326424;26;35219;-87
2023/04/06 06:22:30;;;;;;;;;;;;;;;4.68;41.47;99985.87;5308995;26;32604;-87
2023/04/06 06:25:10;;;;;;;;;;;;;;;4.68;42.51;99982.41;5344114;26;34927;-87
2023/04/06 06:27:46;;;;;;;;;;;;;;;4.98;40.47;99978.37;5327697;26;34444;-87
2023/04/06 06:30:17;;;;;;;;;;;;;;;5.23;39.68;99974.44;5363511;26;34039;-86
2023/04/06 06:32:50;;;;;;;;;;;;;;;5.23;39.67;99973.56;5328573;26;33843;-87
2023/04/06 06:35:19;;;;;;;;;;;;;;;5.26;38.98;99969.13;5345015;26;32816;-87
2023/04/06 06:37:52;;;;;;;;;;;;;;;5.29;39.78;99968.22;5328319;26;33024;-87
2023/04/06 06:43:06;;;;;;;;;;;;;;;5.02;41.40;99959.97;5346182;26;32121;-86
2023/04/06 06:45:35;;;;;;;;;;;;;;;4.90;41.10;99960.22;5308529;26;32738;-87
2023/04/06 06:48:03;;;;;;;;;;;;;;;4.83;41.67;99959.44;5326451;26;34007;-86
2023/04/06 06:50:34;;;;;;;;;;;;;;;5.52;40.11;99963.37;5324377;26;34234;-86
2023/04/06 06:53:10;;;;;;;;;;;;;;;5.27;39.88;99960.41;5327296;26;33336;-87
2023/04/06 06:55:44;;;;;;;;;;;;;;;5.59;39.71;99951.00;5309896;26;33295;-87
2023/04/06 06:58:14;;;;;;;;;;;;;;;5.27;40.11;99955.16;5326164;26;34418;-87
2023/04/06 07:00:47;;;;;;;;;;;;;;;5.83;39.62;99960.94;5327080;26;33807;-85
2023/04/06 07:03:17;;;;;;;;;;;;;;;5.85;39.58;99951.31;5325852;26;33299;-86
2023/04/06 07:05:55;;;;;;;;;;;;;;;6.07;38.56;99940.37;5247638;26;1718964;-86
2023/04/06 07:08:24;;;;;;;;;;;;;;;6.13;39.05;99940.25;5326601;26;33016;-85
2023/04/06 07:10:56;;;;;;;;;;;;;;;6.56;37.39;99939.22;5345117;26;36408;-85
2023/04/06 07:16:06;;;;;;;;;;;;;;;5.90;38.38;99948.59;5346267;26;33744;-86
2023/04/06 07:18:41;;;;;;;;;;;;;;;6.55;37.55;99940.97;5345660;26;35935;-86
2023/04/06 07:21:12;;;;;;;;;;;;;;;6.20;37.84;99933.94;5344494;26;35202;-85
2023/04/06 07:26:24;;;;;;;;;;;;;;;7.13;36.87;99941.22;5363019;26;33218;-85
2023/04/06 07:28:52;;;;;;;;;;;;;;;6.63;37.26;99935.50;5326531;26;33238;-86
2023/04/06 07:31:23;;;;;;;;;;;;;;;6.55;37.40;99933.09;5344345;26;33022;-84
2023/04/06 07:33:53;;;;;;;;;;;;;;;6.87;36.33;99934.88;5308812;26;33312;-85
2023/04/06 07:36:29;;;;;;;;;;;;;;;6.81;36.67;99932.41;5328000;26;34537;-85
2023/04/06 07:39:01;;;;;;;;;;;;;;;6.92;36.00;99940.00;5308838;26;33897;-86
2023/04/06 07:41:34;;;;;;;;;;;;;;;7.32;35.29;99934.53;5345926;26;34243;-85
2023/04/06 07:44:04;;;;;;;;;;;;;;;7.02;36.07;99932.75;5345910;26;34187;-86
2023/04/06 07:49:22;;;;;;;;;;;;;;;7.07;35.93;99928.22;5329478;26;32828;-85
2023/04/06 07:51:51;;;;;;;;;;;;;;;7.36;35.72;99927.44;5327869;26;35411;-85
2023/04/06 07:54:19;;;;;;;;;;;;;;;7.66;35.14;99923.03;5327357;26;32140;-85
2023/04/06 07:56:56;;;;;;;;;;;;;;;7.82;34.80;99919.03;5308701;26;34208;-86
2023/04/06 07:59:27;;;;;;;;;;;;;;;7.57;35.96;99918.06;5345214;26;32774;-86
2023/04/06 08:02:10;;;;;;;;;;;;;;;7.82;34.85;99916.41;5327381;26;33558;-86
2023/04/06 08:04:40;;;;;;;;;;;;;;;7.91;35.52;99912.63;5324262;26;32190;-86
2023/04/06 08:07:22;;;;;;;;;;;;;;;8.31;33.08;99907.00;5309960;26;32851;-87
2023/04/06 08:09:53;;;;;;;;;;;;;;;7.55;35.47;99922.47;5344446;26;34357;-86
2023/04/06 08:12:34;;;;;;;;;;;;;;;7.77;34.25;99902.53;5310640;26;33711;-87
2023/04/06 08:15:05;;;;;;;;;;;;;;;7.40;35.11;99916.78;5343011;26;32838;-86
2023/04/06 08:17:34;;;;;;;;;;;;;;;7.73;35.08;99919.31;5343870;26;33858;-84
2023/04/06 08:20:08;;;;;;;;;;;;;;;7.81;35.61;99921.72;5343243;26;34661;-86
2023/04/06 08:22:46;;;;;;;;;;;;;;;8.07;34.17;99915.63;5347034;26;33678;-85
2023/04/06 08:25:20;;;;;;;;;;;;;;;8.07;34.69;99910.37;5364027;26;32797;-85
2023/04/06 08:27:56;;;;;;;;;;;;;;;8.11;35.50;99904.13;5346773;26;33252;-85
2023/04/06 08:30:28;;;;;;;;;;;;;;;7.60;34.75;99908.31;5327717;26;34617;-85
2023/04/06 08:33:04;;;;;;;;;;;;;;;8.22;34.22;99896.75;5327534;26;34171;-85
2023/04/06 08:35:43;;;;;;;;;;;;;;;8.20;33.30;99904.69;5346824;26;34042;-85
2023/04/06 08:38:12;;;;;;;;;;;;;;;7.65;35.38;99905.56;5327358;26;34521;-84
2023/04/06 08:40:40;;;;;;;;;;;;;;;8.25;33.26;99896.63;5327420;26;34182;-85
2023/04/06 08:45:58;;;;;;;;;;;;;;;8.27;33.55;99900.09;5346627;26;32533;-85
2023/04/06 08:51:15;;;;;;;;;;;;;;;8.12;33.13;99879.56;5348186;26;34292;-85
2023/04/06 08:53:50;;;;;;;;;;;;;;;8.19;33.79;99860.88;5326250;26;34201;-85
2023/04/06 08:56:32;;;;;;;;;;;;;;;8.17;33.59;99872.37;5365286;26;34876;-85
2023/04/06 08:59:01;;;;;;;;;;;;;;;8.06;34.39;99885.84;5344739;26;33149;-86
2023/04/06 09:01:30;;;;;;;;;;;;;;;8.14;33.73;99883.00;5324792;26;33021;-85
2023/04/06 09:04:00;;;;;;;;;;;;;;;8.08;34.40;99878.78;5327066;26;33914;-85
2023/04/06 09:06:32;;;;;;;;;;;;;;;8.33;34.00;99864.84;5345054;26;34000;-85
2023/04/06 09:09:02;;;;;;;;;;;;;;;8.33;33.95;99857.78;5327768;26;32966;-85
2023/04/06 09:11:46;;;;;;;;;;;;;;;8.56;33.67;99858.81;5328147;26;33568;-85
2023/04/06 09:14:15;;;;;;;;;;;;;;;9.11;32.38;99852.44;5345669;26;34246;-85
2023/04/06 09:16:43;;;;;;;;;;;;;;;8.62;32.98;99853.34;5345542;26;33646;-85
2023/04/06 09:19:15;;;;;;;;;;;;;;;8.75;32.43;99856.41;5309883;26;33257;-86
2023/04/06 09:21:43;;;;;;;;;;;;;;;8.88;32.37;99839.28;5345278;26;33371;-85
2023/04/06 09:24:13;;;;;;;;;;;;;;;9.09;32.33;99842.88;5309201;26;33559;-85
2023/04/06 09:26:50;;;;;;;;;;;;;;;9.19;31.00;99839.84;5284764;26;32760;-85
2023/04/06 09:32:04;;;;;;;;;;;;;;;8.53;31.58;99849.25;5327037;26;33028;-85
2023/04/06 09:34:39;;;;;;;;;;;;;;;8.40;32.08;99840.94;5344356;26;33321;-85
2023/04/06 09:37:14;;;;;;;;;;;;;;;8.98;30.80;99840.66;5345303;26;33326;-85
2023/04/06 09:39:46;;;;;;;;;;;;;;;9.53;29.53;99832.44;5343315;26;34932;-84
2023/04/06 09:42:26;;;;;;;;;;;;;;;9.72;31.01;99818.47;5325871;26;33502;-84
2023/04/06 09:45:08;;;;;;;;;;;;;;;9.80;30.32;99820.81;5346421;26;34921;-85
2023/04/06 09:47:45;;;;;;;;;;;;;;;9.41;30.23;99807.44;5364060;26;33938;-84
2023/04/06 09:50:29;;;;;;;;;;;;;;;9.86;28.54;99815.28;5342110;26;34961;-84
2023/04/06 09:53:04;;;;;;;;;;;;;;;9.77;28.63;99810.37;5346702;26;35978;-84
2023/04/06 09:55:43;;;;;;;;;;;;;;;9.88;28.15;99818.72;5310086;26;33492;-84
2023/04/06 09:58:15;;;;;;;;;;;;;;;9.96;28.28;99819.25;5346160;26;32321;-84
2023/04/06 10:01:01;;;;;;;;;;;;;;;9.86;29.16;99820.53;5345635;26;34551;-84
2023/04/06 10:08:54;;;;;;;;;;;;;;;9.84;29.28;99816.28;5346673;26;32815;-84
2023/04/06 10:11:23;;;;;;;;;;;;;;;10.08;28.31;99811.78;5345804;26;33848;-84
2023/04/06 10:13:55;;;;;;;;;;;;;;;9.78;28.26;99812.09;5345062;26;33147;-84
2023/04/06 10:16:29;;;;;;;;;;;;;;;9.82;27.63;99803.13;5346663;26;34225;-84
2023/04/06 10:19:05;;;;;;;;;;;;;;;9.81;27.96;99800.56;5329928;26;34238;-84
2023/04/06 10:21:35;;;;;;;;;;;;;;;9.98;28.49;99803.37;5309477;26;33253;-85
2023/04/06 10:24:10;;;;;;;;;;;;;;;10.42;28.70;99798.88;5346206;26;33843;-85
2023/04/06 10:26:42;;;;;;;;;;;;;;;10.49;29.03;99796.81;5345811;26;34158;-85
2023/04/06 10:29:13;;;;;;;;;;;;;;;10.91;26.99;99793.22;5345803;26;33322;-85
2023/04/06 10:34:35;;;;;;;;;;;;;;;10.71;26.13;99784.41;5329165;26;33632;-85
2023/04/06 10:37:13;;;;;;;;;;;;;;;10.80;27.29;99785.78;5345278;26;34428;-85
2023/04/06 10:40:07;;;;;;;;;;;;;;;10.50;27.62;99778.31;5345186;26;32411;-85
2023/04/06 10:42:43;;;;;;;;;;;;;;;10.74;27.65;99778.16;5343802;26;34164;-84
2023/04/06 10:45:25;;;;;;;;;;;;;;;11.47;26.10;99774.72;5346458;26;34729;-84
2023/04/06 10:48:04;;;;;;;;;;;;;;;11.25;25.98;99769.62;5346328;26;35254;-85
2023/04/06 10:50:36;;;;;;;;;;;;;;;11.37;27.36;99768.16;5307182;26;32398;-85
2023/04/06 10:53:14;;;;;;;;;;;;;;;11.72;26.01;99760.31;5344899;26;34108;-85
2023/04/06 10:55:51;;;;;;;;;;;;;;;11.44;25.81;99752.84;5364961;26;35036;-84
2023/04/06 10:58:30;;;;;;;;;;;;;;;11.42;26.65;99754.72;5363970;26;34400;-85
2023/04/06 11:01:06;;;;;;;;;;;;;;;11.36;26.53;99757.69;5363759;26;32986;-85
2023/04/06 11:03:47;;;;;;;;;;;;;;;11.62;27.38;99748.47;5329935;26;34309;-85
2023/04/06 11:06:27;;;;;;;;;;;;;;;11.65;25.46;99753.62;5329438;26;35153;-84
2023/04/06 11:09:04;;;;;;;;;;;;;;;11.50;26.24;99752.59;5344205;26;34037;-84
2023/04/06 11:14:26;;;;;;;;;;;;;;;11.14;26.98;99744.59;5347777;26;34177;-85
2023/04/06 11:16:59;;;;;;;;;;;;;;;11.29;25.93;99755.31;5346557;26;33595;-85
2023/04/06 11:19:28;;;;;;;;;;;;;;;11.40;25.57;99752.19;5328038;26;34521;-85
2023/04/06 11:21:56;;;;;;;;;;;;;;;11.32;25.77;99749.03;5346146;26;33604;-85
2023/04/06 11:24:33;;;;;;;;;;;;;;;11.06;25.70;99758.16;5330462;26;34476;-85
2023/04/06 11:27:06;;;;;;;;;;;;;;;11.23;26.21;99744.19;5344949;26;34491;-85
2023/04/06 11:29:38;;;;;;;;;;;;;;;11.55;27.43;99740.00;5346156;26;35201;-85
2023/04/06 11:32:21;;;;;;;;;;;;;;;11.45;27.84;99750.16;5308384;26;32528;-85
2023/04/06 11:34:57;;;;;;;;;;;;;;;11.15;28.58;99749.81;5328239;26;34614;-85
2023/04/06 11:37:34;;;;;;;;;;;;;;;11.33;29.27;99736.66;5329235;26;35020;-85
2023/04/06 11:40:15;;;;;;;;;;;;;;;11.59;28.49;99727.50;5329052;26;36099;-85
2023/04/06 11:42:44;;;;;;;;;;;;;;;11.92;27.41;99731.16;5345159;26;32214;-85
2023/04/06 11:45:15;;;;;;;;;;;;;;;11.81;27.71;99722.84;5344913;26;34247;-85
2023/04/06 11:47:57;;;;;;;;;;;;;;;11.50;27.80;99732.28;5310657;26;33173;-85
2023/04/06 11:50:36;;;;;;;;;;;;;;;12.02;26.61;99731.53;5341707;26;35233;-85
2023/04/06 11:53:13;;;;;;;;;;;;;;;11.96;26.94;99740.63;5342102;26;33669;-86
2023/04/06 11:55:52;;;;;;;;;;;;;;;11.94;26.26;99736.34;5341317;26;32849;-85
2023/04/06 11:58:27;;;;;;;;;;;;;;;11.87;27.05;99733.16;5323317;26;35095;-85
2023/04/06 12:01:04;;;;;;;;;;;;;;;12.08;27.10;99736.50;5322477;26;34073;-85
2023/04/06 12:03:38;;;;;;;;;;;;;;;12.22;25.46;99714.62;5305508;26;32544;-86
2023/04/06 12:06:17;;;;;;;;;;;;;;;12.30;26.29;99712.44;5322176;26;32895;-85
2023/04/06 12:08:52;;;;;;;;;;;;;;;11.89;26.32;99728.63;5340076;26;33743;-85
2023/04/06 12:11:35;;;;;;;;;;;;;;;11.76;26.11;99728.34;5324780;26;35933;-87
2023/04/06 12:14:11;;;;;;;;;;;;;;;11.58;26.19;99718.69;5305798;26;32522;-86
2023/04/06 12:16:44;;;;;;;;;;;;;;;11.10;27.85;99727.19;5341640;26;33201;-87
2023/04/06 12:19:28;;;;;;;;;;;;;;;11.28;26.67;99726.31;5306853;26;32601;-86
2023/04/06 12:21:59;;;;;;;;;;;;;;;11.38;26.50;99722.28;5323922;26;34500;-86
2023/04/06 12:24:28;;;;;;;;;;;;;;;11.47;27.09;99721.84;5323155;26;33569;-87
2023/04/06 12:26:58;;;;;;;;;;;;;;;11.39;27.14;99721.34;5323067;26;33568;-87
2023/04/06 12:29:39;;;;;;;;;;;;;;;11.15;27.10;99728.66;5321455;26;34155;-86
2023/04/06 12:32:11;;;;;;;;;;;;;;;10.99;27.26;99720.63;5322314;26;32711;-84
2023/04/06 12:34:47;;;;;;;;;;;;;;;11.08;27.11;99726.41;5325109;26;34382;-85
2023/04/06 12:37:16;;;;;;;;;;;;;;;11.12;27.61;99720.06;5323246;26;34162;-84
2023/04/06 12:39:54;;;;;;;;;;;;;;;11.21;27.09;99720.47;5305509;26;33431;-83
2023/04/06 12:42:26;;;;;;;;;;;;;;;11.25;27.68;99716.75;5323827;26;33562;-84
2023/04/06 12:45:02;;;;;;;;;;;;;;;11.25;27.10;99718.53;5324843;26;33633;-84
2023/04/06 12:50:13;;;;;;;;;;;;;;;11.41;26.97;99719.50;5329208;26;33098;-84
2023/04/06 12:52:43;;;;;;;;;;;;;;;11.39;27.35;99712.56;5309563;26;34150;-84
2023/04/06 12:55:12;;;;;;;;;;;;;;;11.51;27.57;99712.84;5323781;26;33217;-84
2023/04/06 12:57:41;;;;;;;;;;;;;;;11.56;27.02;99715.25;5327344;26;33953;-83
2023/04/06 13:00:16;;;;;;;;;;;;;;;11.29;27.37;99702.44;5330553;26;36037;-84
2023/04/06 13:02:52;;;;;;;;;;;;;;;11.62;27.37;99706.16;5318673;26;33479;-84
2023/04/06 13:05:33;;;;;;;;;;;;;;;11.24;27.30;99707.09;5328277;26;32405;-84
2023/04/06 13:08:13;;;;;;;;;;;;;;;11.37;26.99;99709.16;5348274;26;33739;-85
2023/04/06 13:10:52;;;;;;;;;;;;;;;11.41;27.46;99703.66;5346197;26;34261;-86
2023/04/06 13:13:22;;;;;;;;;;;;;;;11.43;26.26;99709.72;5328940;26;34399;-85
2023/04/06 13:15:56;;;;;;;;;;;;;;;11.48;26.12;99705.06;5326962;26;32401;-84
2023/04/06 13:18:36;;;;;;;;;;;;;;;11.42;25.80;99702.72;5345470;26;33617;-84
2023/04/06 13:21:08;;;;;;;;;;;;;;;10.92;26.64;99711.28;5346553;26;34303;-84
2023/04/06 13:23:41;;;;;;;;;;;;;;;10.72;27.18;99719.25;5328384;26;33614;-84
2023/04/06 13:26:16;;;;;;;;;;;;;;;10.88;26.85;99712.34;5346911;26;33315;-84
2023/04/06 13:28:45;;;;;;;;;;;;;;;10.97;26.41;99701.34;5310279;26;34334;-85
2023/04/06 13:31:29;;;;;;;;;;;;;;;10.97;26.25;99701.34;5327705;26;35970;-84
2023/04/06 13:34:03;;;;;;;;;;;;;;;10.67;27.33;99713.31;5346888;26;36048;-84
2023/04/06 13:36:33;;;;;;;;;;;;;;;10.70;27.64;99719.31;5327844;26;33673;-85
2023/04/06 13:39:08;;;;;;;;;;;;;;;10.62;27.37;99715.31;5309419;26;33248;-85
2023/04/06 13:41:37;;;;;;;;;;;;;;;10.71;28.30;99709.59;5322454;26;34981;-85
2023/04/06 13:44:06;;;;;;;;;;;;;;;10.39;28.59;99701.34;5345157;26;34582;-84
2023/04/06 13:46:47;;;;;;;;;;;;;;;10.28;29.97;99706.25;5346787;26;34380;-85
2023/04/06 13:49:16;;;;;;;;;;;;;;;10.12;29.11;99705.19;5344975;26;35133;-84
2023/04/06 13:51:50;;;;;;;;;;;;;;;10.34;29.23;99700.69;5329253;26;34270;-84
2023/04/06 13:57:16;;;;;;;;;;;;;;;10.13;29.97;99698.97;5344601;26;32848;-84